Архив погоды в Арзамасе

Метеограмма Арзамас
Суббота, 19 Августа
Время местн. Темп Ветер Видим Явления Облачность нижн/средн/верх Атм. давл. Влжн Точка росы ВНГО R Сост. почвы Tg s
Напр Скр Прв ур.ст ур.м изм
15:00 +27.2° Ю,Ю-З 2 3 20 км - переменная облачность 758 769 -0.3 38% +11.8° 1 км - - - -
12:00 +26.1° Ю 2 4 20 км - переменная облачность 759 769 -0.4 42% +12.3° 1 км - - - -
09:00 +20.4° Ю-В 1 3 20 км - ясно 759 770 -0.1 69% +14.6° более 2.5 км - - - -
06:00 +11.1° штиль 0 0 20 км - переменная облачность 759 770 +0.6 97% +10.7° 600 м - Сухая (без трещин) - -
03:00 +10.3° С-В 1 1 4 км - переменная облачность 759 770 -0.3 97% +9.9° 600 м - - - -
00:00 +10.9° штиль 0 0 4 км сплошной поземный туман переменная облачность 759 770 0 96% +10.3° - - - - -
Пятница, 18 Августа
Время местн. Темп Ветер Видим Явления Облачность нижн/средн/верх Атм. давл. Влжн Точка росы ВНГО R Сост. почвы Tg s
Напр Скр Прв ур.ст ур.м изм
21:00 +15.3° В 1 3 4 км - переменная облачность 759 770 +0.1 84% +12.6° более 2.5 км - - - -
18:00 +23.7° В 2 3 20 км - ясно 759 770 -0.9 46% +11.4° более 2.5 км - - - -
15:00 +24.4° С,С-В 1 3 20 км - переменная облачность 760 770 -0.7 44% +11.3° 600 м - - - -
12:00 +24.5° Ю 2 6 20 км - облачно с прояснениями 760 771 -0.2 46% +12.1° 600 м - - - -
09:00 +20.2° В,Ю-В 1 3 20 км - облачно с прояснениями 761 771 -0.1 59% +12° - - - - -
06:00 +11.2° В 1 2 20 км - облачно с прояснениями 761 772 +0.2 96% +10.6° - - Сухая (без трещин) - -
03:00 +9.5° В 1 3 4 км - ясно 760 772 -0.1 93% +8.5° более 2.5 км - - - -
00:00 +13.9° В 1 3 4 км - ясно 760 772 +0.1 80% +10.5° более 2.5 км - - - -
Четверг, 17 Августа
Время местн. Темп Ветер Видим Явления Облачность нижн/средн/верх Атм. давл. Влжн Точка росы ВНГО R Сост. почвы Tg s
Напр Скр Прв ур.ст ур.м изм
21:00 +15.6° С-В 2 4 4 км - ясно 760 771 +0.3 82% +12.5° более 2.5 км - - - -
18:00 +22.8° С,С-В 1 6 20 км - ясно 760 771 -0.8 41% +8.8° более 2.5 км 0 - - -
15:00 +23.6° В 2 3 20 км - ясно 761 772 -0.6 39% +8.9° 600 м - - - -
12:00 +22.4° В 3 6 20 км - ясно 762 772 -0.2 43% +9.2° 600 м - - - -
09:00 +19.7° В 2 4 20 км - ясно 762 773 0 58% +11.3° более 2.5 км - - - -
06:00 +10.4° В 1 2 20 км - ясно 762 773 +0.4 96% +9.8° более 2.5 км - Влажная (без луж) - -
03:00 +8.6° В,С-В 1 2 4 км - ясно 761 773 +0.2 96% +8° более 2.5 км - - - -
00:00 +12° В 2 3 4 км - ясно 761 772 +0.4 93% +10.9° более 2.5 км - - - -
Среда, 16 Августа
Время местн. Темп Ветер Видим Явления Облачность нижн/средн/верх Атм. давл. Влжн Точка росы ВНГО R Сост. почвы Tg s
Напр Скр Прв ур.ст ур.м изм
21:00 +15.2° В,С-В 2 2 4 км - ясно 761 772 +0.4 82% +12.1° более 2.5 км - - - -
18:00 +21.7° В 2 3 20 км - ясно 760 771 -0.3 56% +12.5° 1 км - - - -
15:00 +22.7° С-В 3 10 20 км - переменная облачность 761 772 -0.2 51% +11.9° 1 км - - - -
12:00 +22.4° В 3 6 20 км - переменная облачность 761 772 0 61% +14.6° 1 км - - - -